createdAt,value
2017-04-29T00:00:22.430Z,99.99
2017-04-29T00:01:02.913Z,99.99
2017-04-29T00:01:43.404Z,99.99
2017-04-29T00:02:23.938Z,99.99
2017-04-29T00:03:04.400Z,99.99
2017-04-29T00:03:44.895Z,99.99
2017-04-29T00:04:25.386Z,99.99
2017-04-29T00:05:05.902Z,99.99
2017-04-29T00:05:46.394Z,99.99
2017-04-29T00:06:26.910Z,99.99
2017-04-29T00:07:07.408Z,99.99
2017-04-29T00:07:47.915Z,99.99
2017-04-29T00:08:28.431Z,99.99
2017-04-29T00:09:08.894Z,99.99
2017-04-29T00:09:49.416Z,99.99
2017-04-29T00:10:29.880Z,99.99
2017-04-29T00:11:10.361Z,99.99
2017-04-29T00:11:50.850Z,99.99
2017-04-29T00:12:31.330Z,99.99
2017-04-29T00:14:29.512Z,99.99
2017-04-29T00:15:09.961Z,99.99
2017-04-29T00:15:50.465Z,99.99
2017-04-29T00:16:30.954Z,99.99
2017-04-29T00:17:11.422Z,99.99
2017-04-29T00:17:51.934Z,99.99
2017-04-29T00:18:32.440Z,99.99
2017-04-29T00:19:12.951Z,99.99
2017-04-29T00:19:53.440Z,99.99
2017-04-29T00:20:33.934Z,99.99
2017-04-29T00:21:14.418Z,99.99
2017-04-29T00:21:54.903Z,99.99
2017-04-29T00:22:35.397Z,99.99
2017-04-29T00:23:15.930Z,99.99
2017-04-29T00:23:56.398Z,99.99
2017-04-29T00:24:36.959Z,99.99
2017-04-29T00:25:17.428Z,99.99
2017-04-29T00:25:57.911Z,99.99
2017-04-29T00:26:38.419Z,99.99
2017-04-29T00:27:18.916Z,99.99
2017-04-29T00:27:59.418Z,99.99
2017-04-29T00:28:39.869Z,99.99
2017-04-29T00:29:20.343Z,99.99
2017-04-29T00:30:00.827Z,99.99
2017-04-29T00:30:41.319Z,99.99
2017-04-29T00:31:21.800Z,99.99
2017-04-29T00:32:02.321Z,99.99
2017-04-29T00:32:42.836Z,99.99
2017-04-29T00:33:23.294Z,99.99
2017-04-29T00:34:03.780Z,99.99
2017-04-29T00:34:44.249Z,99.99
2017-04-29T00:35:24.764Z,99.99
2017-04-29T00:36:05.229Z,99.99
2017-04-29T00:36:45.716Z,99.99
2017-04-29T00:37:26.218Z,99.99
2017-04-29T00:38:06.718Z,99.99
2017-04-29T00:38:47.201Z,99.99
2017-04-29T00:39:27.680Z,99.99
2017-04-29T00:40:08.203Z,99.99
2017-04-29T00:40:48.684Z,99.99
2017-04-29T00:41:29.166Z,99.99
2017-04-29T00:42:09.631Z,99.99
2017-04-29T00:42:50.140Z,99.99
2017-04-29T00:43:30.650Z,99.99
2017-04-29T00:44:11.157Z,99.99
2017-04-29T00:44:51.605Z,99.99
2017-04-29T00:45:32.081Z,99.99
2017-04-29T00:46:12.560Z,99.99
2017-04-29T00:46:53.027Z,99.99
2017-04-29T00:47:33.511Z,99.99
2017-04-29T00:48:14.003Z,99.99
2017-04-29T00:48:54.518Z,99.99
2017-04-29T00:49:34.990Z,99.99
2017-04-29T00:50:15.472Z,99.99
2017-04-29T00:50:55.962Z,99.99
2017-04-29T00:51:36.429Z,99.99
2017-04-29T00:52:16.943Z,99.99
2017-04-29T00:52:57.413Z,99.99
2017-04-29T00:53:37.914Z,99.99
2017-04-29T00:54:18.435Z,99.99
2017-04-29T00:54:58.904Z,99.99
2017-04-29T00:55:39.396Z,99.99
2017-04-29T00:56:19.865Z,99.99
2017-04-29T00:57:00.349Z,99.99
2017-04-29T00:57:40.823Z,99.99
2017-04-29T00:58:21.325Z,99.99
2017-04-29T00:59:01.866Z,99.99
2017-04-29T00:59:42.377Z,99.99
2017-04-29T01:00:22.883Z,99.99
2017-04-29T01:01:03.381Z,99.99
2017-04-29T01:01:43.882Z,99.99
2017-04-29T01:02:24.356Z,99.99
2017-04-29T01:03:04.824Z,99.99
2017-04-29T01:03:45.336Z,99.99
2017-04-29T01:04:25.821Z,99.99
2017-04-29T01:05:06.352Z,99.99
2017-04-29T01:05:46.880Z,99.99
2017-04-29T01:06:27.374Z,99.99
2017-04-29T01:07:07.845Z,99.99
2017-04-29T01:07:48.345Z,99.99
2017-04-29T01:08:28.856Z,99.99
2017-04-29T01:09:09.368Z,99.99
2017-04-29T01:09:49.858Z,99.99
2017-04-29T01:10:30.360Z,99.99
2017-04-29T01:11:10.845Z,99.99
2017-04-29T01:11:51.330Z,99.99
2017-04-29T01:12:31.841Z,99.99
2017-04-29T01:13:12.320Z,99.99
2017-04-29T01:13:52.810Z,99.99
2017-04-29T01:14:33.299Z,99.99
2017-04-29T01:15:13.794Z,99.99
2017-04-29T01:15:54.283Z,99.99
2017-04-29T01:16:34.764Z,99.99
2017-04-29T01:17:15.251Z,99.99
2017-04-29T01:17:55.769Z,99.99
2017-04-29T01:18:36.287Z,99.99
2017-04-29T01:19:16.817Z,99.99
2017-04-29T01:19:57.307Z,99.99
2017-04-29T01:20:37.782Z,99.99
2017-04-29T01:21:18.265Z,99.99
2017-04-29T01:21:58.738Z,99.99
2017-04-29T01:22:39.248Z,99.99
2017-04-29T01:23:19.733Z,99.99
2017-04-29T01:24:00.214Z,99.99
2017-04-29T01:24:40.714Z,99.99
2017-04-29T01:25:21.213Z,99.99
2017-04-29T01:26:01.697Z,99.99
2017-04-29T01:26:42.169Z,99.99
2017-04-29T01:27:22.646Z,99.99
2017-04-29T01:28:03.113Z,99.99
2017-04-29T01:28:43.585Z,99.99
2017-04-29T01:29:24.068Z,99.99
2017-04-29T01:30:04.565Z,99.99
2017-04-29T01:30:45.071Z,99.99
2017-04-29T01:31:25.543Z,99.99
2017-04-29T01:32:06.034Z,99.99
2017-04-29T01:32:46.532Z,99.99
2017-04-29T01:33:27.036Z,99.99
2017-04-29T01:34:07.507Z,99.99
2017-04-29T01:34:47.999Z,99.99
2017-04-29T01:35:28.521Z,99.99
2017-04-29T01:36:08.988Z,99.99
2017-04-29T01:36:49.481Z,99.99
2017-04-29T01:37:29.955Z,99.99
2017-04-29T01:38:10.438Z,99.99
2017-04-29T01:38:50.939Z,99.99
2017-04-29T01:39:31.418Z,99.99
2017-04-29T01:40:11.947Z,99.99
2017-04-29T01:40:52.442Z,99.99
2017-04-29T01:41:32.908Z,99.99
2017-04-29T01:42:13.434Z,99.99
2017-04-29T01:42:53.953Z,99.99
2017-04-29T01:43:34.428Z,99.99
2017-04-29T01:44:14.907Z,99.99
2017-04-29T01:44:55.395Z,99.99
2017-04-29T01:46:44.310Z,99.99
2017-04-29T01:47:24.796Z,99.99
2017-04-29T01:48:05.282Z,99.99
2017-04-29T01:48:45.782Z,99.99
2017-04-29T01:49:26.267Z,99.99
2017-04-29T01:50:06.757Z,99.99
2017-04-29T01:50:47.260Z,99.99
2017-04-29T01:51:27.735Z,99.99
2017-04-29T01:52:08.223Z,99.99
2017-04-29T01:52:48.693Z,99.99
2017-04-29T01:53:29.177Z,99.99
2017-04-29T01:54:09.663Z,99.99
2017-04-29T01:54:50.198Z,99.99
2017-04-29T01:55:30.665Z,99.99
2017-04-29T01:56:11.111Z,99.99
2017-04-29T01:56:51.652Z,99.99
2017-04-29T01:57:32.144Z,99.99
2017-04-29T01:58:12.633Z,99.99
2017-04-29T01:58:53.087Z,99.99
2017-04-29T01:59:33.572Z,99.99
2017-04-29T02:00:14.069Z,99.99
2017-04-29T02:00:54.544Z,99.99
2017-04-29T02:01:35.035Z,99.99
2017-04-29T02:02:15.505Z,99.99
2017-04-29T02:02:55.975Z,99.99
2017-04-29T02:03:36.485Z,99.99
2017-04-29T02:04:17.012Z,99.99
2017-04-29T02:04:57.528Z,99.99
2017-04-29T02:05:38.010Z,99.99
2017-04-29T02:06:18.517Z,99.99
2017-04-29T02:06:59.013Z,99.99
2017-04-29T02:07:39.487Z,99.99
2017-04-29T02:08:19.988Z,99.99
2017-04-29T02:09:00.444Z,99.99
2017-04-29T02:09:40.948Z,99.99
2017-04-29T02:10:21.425Z,99.99
2017-04-29T02:11:01.915Z,99.99
2017-04-29T02:11:42.456Z,99.99
2017-04-29T02:12:22.883Z,99.99
2017-04-29T02:13:03.364Z,99.99
2017-04-29T02:13:43.872Z,99.99
2017-04-29T02:14:24.331Z,99.99
2017-04-29T02:15:04.805Z,99.99
2017-04-29T02:15:45.288Z,99.99
2017-04-29T02:16:25.772Z,99.99
2017-04-29T02:17:06.229Z,99.99
2017-04-29T02:17:46.725Z,99.99
2017-04-29T02:18:27.239Z,99.99
2017-04-29T02:19:07.723Z,99.99
2017-04-29T02:19:48.210Z,99.99
2017-04-29T02:20:28.713Z,99.99
2017-04-29T02:21:09.216Z,99.99
2017-04-29T02:21:49.720Z,99.99
2017-04-29T02:22:30.169Z,99.99
2017-04-29T02:23:10.678Z,99.99
2017-04-29T02:23:51.185Z,99.99
2017-04-29T02:24:31.662Z,99.99
2017-04-29T02:25:12.165Z,99.99
2017-04-29T02:25:52.667Z,99.99
2017-04-29T02:26:33.183Z,99.99
2017-04-29T02:27:13.658Z,99.99
2017-04-29T02:27:54.170Z,99.99
2017-04-29T02:28:34.660Z,99.99
2017-04-29T02:29:15.173Z,99.99
2017-04-29T02:29:55.672Z,99.99
2017-04-29T02:30:36.164Z,99.99
2017-04-29T02:31:16.661Z,99.99
2017-04-29T02:31:57.151Z,99.99
2017-04-29T02:32:37.639Z,99.99
2017-04-29T02:33:18.105Z,99.99
2017-04-29T02:33:58.620Z,99.99
2017-04-29T02:34:39.107Z,99.99
2017-04-29T02:35:19.642Z,99.99
2017-04-29T02:36:00.118Z,99.99
2017-04-29T02:36:40.583Z,99.99
2017-04-29T02:37:21.062Z,99.99
2017-04-29T02:38:01.571Z,99.99
2017-04-29T02:38:42.066Z,99.99
2017-04-29T02:39:22.552Z,99.99
2017-04-29T02:40:03.081Z,99.99
2017-04-29T02:40:43.548Z,99.99
2017-04-29T02:41:24.021Z,99.99
2017-04-29T02:42:04.506Z,99.99
2017-04-29T02:42:44.985Z,99.99
2017-04-29T02:43:25.477Z,99.99
2017-04-29T02:44:05.948Z,99.99
2017-04-29T02:44:46.452Z,99.99
2017-04-29T02:45:26.953Z,99.99
2017-04-29T02:46:07.450Z,99.99
2017-04-29T02:46:47.916Z,99.99
2017-04-29T02:47:28.395Z,99.99
2017-04-29T02:48:08.870Z,99.99
2017-04-29T02:48:49.396Z,99.99
2017-04-29T02:49:29.860Z,99.99
2017-04-29T02:50:10.350Z,99.99
2017-04-29T02:50:50.879Z,99.99
2017-04-29T02:51:31.331Z,99.99
2017-04-29T02:52:11.837Z,99.99
2017-04-29T02:52:52.318Z,99.99
2017-04-29T02:53:32.811Z,99.99
2017-04-29T02:54:13.342Z,99.99
2017-04-29T02:54:53.845Z,99.99
2017-04-29T02:55:34.360Z,99.99
2017-04-29T02:56:14.838Z,99.99
2017-04-29T02:56:55.340Z,99.99
2017-04-29T02:57:35.852Z,99.99
2017-04-29T02:58:16.337Z,99.99
2017-04-29T02:58:56.853Z,99.99
2017-04-29T02:59:37.343Z,99.99
2017-04-29T03:00:17.815Z,99.99
2017-04-29T03:00:58.276Z,99.99
2017-04-29T03:01:38.790Z,99.99
2017-04-29T03:02:19.301Z,99.99
2017-04-29T03:02:59.758Z,99.99
2017-04-29T03:03:40.251Z,99.99
2017-04-29T03:04:20.720Z,99.99
2017-04-29T03:05:01.216Z,99.99
2017-04-29T03:05:41.700Z,99.99
2017-04-29T03:06:22.199Z,99.99
2017-04-29T03:07:02.695Z,99.99
2017-04-29T03:07:43.206Z,99.99
2017-04-29T03:08:23.743Z,99.99
2017-04-29T03:09:04.217Z,99.99
2017-04-29T03:09:44.695Z,99.99
2017-04-29T03:10:25.219Z,99.99
2017-04-29T03:11:05.678Z,99.99
2017-04-29T03:11:46.185Z,99.99
2017-04-29T03:12:26.649Z,99.99
2017-04-29T03:13:07.172Z,99.99
2017-04-29T03:13:47.628Z,99.99
2017-04-29T03:14:28.101Z,99.99
2017-04-29T03:15:08.565Z,99.99
2017-04-29T03:15:49.048Z,99.99
2017-04-29T03:16:29.539Z,99.99
2017-04-29T03:17:10.046Z,99.99
2017-04-29T03:17:50.552Z,99.99
2017-04-29T03:18:31.037Z,99.99
2017-04-29T03:19:11.530Z,99.99
2017-04-29T03:19:52.043Z,99.99
2017-04-29T03:20:32.533Z,99.99
2017-04-29T03:21:13.032Z,99.99
2017-04-29T03:21:53.527Z,99.99
2017-04-29T03:22:34.034Z,99.99
2017-04-29T03:23:14.536Z,99.99
2017-04-29T03:23:55.068Z,99.99
2017-04-29T03:24:35.527Z,99.99
2017-04-29T03:25:16.012Z,99.99
2017-04-29T03:25:56.533Z,99.99
2017-04-29T03:26:37.009Z,99.99
2017-04-29T03:27:17.495Z,99.99
2017-04-29T03:27:57.983Z,99.99
2017-04-29T03:28:38.489Z,99.99
2017-04-29T03:29:18.972Z,99.99
2017-04-29T03:29:59.450Z,99.99
2017-04-29T03:30:39.935Z,99.99
2017-04-29T03:31:20.395Z,99.99
2017-04-29T03:32:00.871Z,99.99
2017-04-29T03:32:41.360Z,99.99
2017-04-29T03:33:21.886Z,99.99
2017-04-29T03:34:02.372Z,99.99
2017-04-29T03:34:42.879Z,99.99
2017-04-29T03:35:23.336Z,99.99
2017-04-29T03:36:03.865Z,99.99
2017-04-29T03:36:44.367Z,99.99
2017-04-29T03:37:24.856Z,99.99
2017-04-29T03:38:05.362Z,99.99
2017-04-29T03:38:45.840Z,99.99
2017-04-29T03:39:26.322Z,99.99
2017-04-29T03:40:06.834Z,99.99
2017-04-29T03:40:47.299Z,99.99
2017-04-29T03:41:27.795Z,99.99
2017-04-29T03:42:08.291Z,99.99
2017-04-29T03:42:48.781Z,99.99
2017-04-29T03:43:29.281Z,99.99
2017-04-29T03:44:09.780Z,99.99
2017-04-29T03:44:50.263Z,99.99
2017-04-29T03:45:30.741Z,99.99
2017-04-29T03:46:11.238Z,99.99
2017-04-29T03:46:51.709Z,99.99
2017-04-29T03:47:32.251Z,99.99
2017-04-29T03:48:12.747Z,99.99
2017-04-29T03:48:53.275Z,99.99
2017-04-29T03:49:33.775Z,99.99
2017-04-29T03:50:14.251Z,99.99
2017-04-29T03:50:54.753Z,99.99
2017-04-29T03:51:35.210Z,99.99
2017-04-29T03:52:15.740Z,99.99
2017-04-29T03:52:56.279Z,99.99
2017-04-29T03:53:36.821Z,99.99
2017-04-29T03:54:17.232Z,99.99
2017-04-29T03:54:57.717Z,99.99
2017-04-29T03:55:38.173Z,99.99
2017-04-29T03:56:18.669Z,99.99
2017-04-29T03:56:59.153Z,99.99
2017-04-29T03:57:39.634Z,99.99
2017-04-29T03:58:20.143Z,99.99
2017-04-29T03:59:00.641Z,99.99
2017-04-29T03:59:41.124Z,99.99
2017-04-29T04:00:21.645Z,99.99
2017-04-29T04:01:02.145Z,99.99
2017-04-29T04:01:42.652Z,99.99
2017-04-29T04:02:23.123Z,99.99
2017-04-29T04:03:03.626Z,99.99
2017-04-29T04:03:44.126Z,99.99
2017-04-29T04:04:24.666Z,99.99
2017-04-29T04:05:05.147Z,99.99
2017-04-29T04:05:45.648Z,99.99
2017-04-29T04:06:26.158Z,99.99
2017-04-29T04:07:06.646Z,99.99
2017-04-29T04:07:47.139Z,99.99
2017-04-29T04:08:27.622Z,99.99
2017-04-29T04:09:08.114Z,99.99
2017-04-29T04:09:48.648Z,99.99
2017-04-29T04:10:29.125Z,99.99
2017-04-29T04:11:09.610Z,99.99
2017-04-29T04:11:50.106Z,99.99
2017-04-29T04:12:30.589Z,99.99
2017-04-29T04:13:11.090Z,99.99
2017-04-29T04:13:51.584Z,99.99
2017-04-29T04:14:32.107Z,99.99
2017-04-29T04:15:12.608Z,99.99
2017-04-29T04:15:53.092Z,99.99
2017-04-29T04:16:33.586Z,99.99
2017-04-29T04:17:14.069Z,99.99
2017-04-29T04:17:54.555Z,99.99
2017-04-29T04:18:35.064Z,99.99
2017-04-29T04:19:15.554Z,99.99
2017-04-29T04:19:56.047Z,99.99
2017-04-29T04:20:36.531Z,99.99
2017-04-29T04:21:16.992Z,99.99
2017-04-29T04:21:57.531Z,99.99
2017-04-29T04:22:38.025Z,99.99
2017-04-29T04:23:18.533Z,99.99
2017-04-29T04:23:59.025Z,99.99
2017-04-29T04:24:39.527Z,99.99
2017-04-29T04:25:19.982Z,99.99
2017-04-29T04:26:00.474Z,99.99
2017-04-29T04:26:40.944Z,99.99
2017-04-29T04:27:21.462Z,99.99
2017-04-29T04:28:01.916Z,99.99
2017-04-29T04:28:42.464Z,99.99
2017-04-29T04:29:22.980Z,99.99
2017-04-29T04:30:03.458Z,99.99
2017-04-29T04:30:43.956Z,99.99
2017-04-29T04:31:24.460Z,99.99
2017-04-29T04:32:04.930Z,99.99
2017-04-29T04:32:45.434Z,99.99
2017-04-29T04:33:25.897Z,99.99
2017-04-29T04:34:06.400Z,99.99
2017-04-29T04:34:46.895Z,99.99
2017-04-29T04:35:27.368Z,99.99
2017-04-29T04:37:45.633Z,99.99
2017-04-29T04:38:26.114Z,99.99
2017-04-29T04:39:06.631Z,99.99
2017-04-29T04:39:47.133Z,99.99
2017-04-29T04:40:27.622Z,99.99
2017-04-29T04:41:08.121Z,99.99
2017-04-29T04:41:48.631Z,99.99
2017-04-29T04:42:29.093Z,99.99
2017-04-29T04:43:09.657Z,99.99
2017-04-29T04:43:50.127Z,99.99
2017-04-29T04:44:30.614Z,99.99
2017-04-29T04:45:11.091Z,99.99
2017-04-29T04:45:51.586Z,99.99
2017-04-29T04:46:32.064Z,99.99
2017-04-29T04:47:12.565Z,99.99
2017-04-29T04:47:53.027Z,99.99
2017-04-29T04:48:33.536Z,99.99
2017-04-29T04:49:14.028Z,99.99
2017-04-29T04:49:54.545Z,99.99
2017-04-29T04:50:35.081Z,99.99
2017-04-29T04:51:15.530Z,99.99
2017-04-29T04:51:55.996Z,99.99
2017-04-29T04:52:36.489Z,99.99
2017-04-29T04:53:16.991Z,99.99
2017-04-29T04:53:57.436Z,99.99
2017-04-29T04:54:37.957Z,99.99
2017-04-29T04:55:18.466Z,99.99
2017-04-29T04:55:58.965Z,99.99
2017-04-29T04:56:39.429Z,99.99
2017-04-29T04:57:19.968Z,99.99
2017-04-29T04:58:00.442Z,99.99
2017-04-29T04:58:40.948Z,99.99
2017-04-29T04:59:21.437Z,99.99
2017-04-29T05:00:01.901Z,99.99
2017-04-29T05:00:42.427Z,99.99
2017-04-29T05:01:22.920Z,99.99
2017-04-29T05:02:03.423Z,99.99
2017-04-29T05:02:43.894Z,99.99
2017-04-29T05:03:24.385Z,99.99
2017-04-29T05:04:04.894Z,99.99
2017-04-29T05:04:45.388Z,99.99
2017-04-29T05:05:25.903Z,99.99
2017-04-29T05:06:06.373Z,99.99
2017-04-29T05:06:46.861Z,99.99
2017-04-29T05:07:27.339Z,99.99
2017-04-29T05:08:07.814Z,99.99
2017-04-29T05:08:48.345Z,99.99
2017-04-29T05:09:28.845Z,99.99
2017-04-29T05:10:09.333Z,99.99
2017-04-29T05:10:49.821Z,99.99
2017-04-29T05:11:30.310Z,99.99
2017-04-29T05:12:10.779Z,99.99
2017-04-29T05:12:51.270Z,99.99
2017-04-29T05:13:31.763Z,99.99
2017-04-29T05:14:12.231Z,99.99
2017-04-29T05:14:52.749Z,99.99
2017-04-29T05:15:33.197Z,99.99
2017-04-29T05:16:13.671Z,99.99
2017-04-29T05:16:54.159Z,99.99
2017-04-29T05:17:34.653Z,99.99
2017-04-29T05:18:15.139Z,99.99
2017-04-29T05:18:55.612Z,99.99
2017-04-29T05:19:36.123Z,99.99
2017-04-29T05:20:16.621Z,99.99
2017-04-29T05:20:57.130Z,99.99
2017-04-29T05:21:37.653Z,99.99
2017-04-29T05:22:18.120Z,99.99
2017-04-29T05:22:58.626Z,99.99
2017-04-29T05:23:39.135Z,99.99
2017-04-29T05:24:19.624Z,99.99
2017-04-29T05:25:00.097Z,99.99
2017-04-29T05:25:40.543Z,99.99
2017-04-29T05:26:21.046Z,99.99
2017-04-29T05:27:01.511Z,99.99
2017-04-29T05:29:20.879Z,99.99
2017-04-29T05:30:01.341Z,99.99
2017-04-29T05:30:41.856Z,99.99
2017-04-29T05:31:22.361Z,99.99
2017-04-29T05:32:02.825Z,99.99
2017-04-29T05:32:43.322Z,99.99
2017-04-29T05:33:23.830Z,99.99
2017-04-29T05:35:17.837Z,99.99
2017-04-29T05:35:58.319Z,99.99
2017-04-29T05:36:38.797Z,99.99
2017-04-29T05:37:19.272Z,99.99
2017-04-29T05:37:59.749Z,99.99
2017-04-29T05:38:40.231Z,99.99
2017-04-29T05:39:20.715Z,99.99
2017-04-29T05:40:01.209Z,99.99
2017-04-29T05:40:41.683Z,99.99
2017-04-29T05:41:22.158Z,99.99
2017-04-29T05:42:02.643Z,99.99
2017-04-29T05:42:43.129Z,99.99
2017-04-29T05:43:23.608Z,99.99
2017-04-29T05:44:04.119Z,99.99
2017-04-29T05:44:44.600Z,99.99
2017-04-29T05:45:25.078Z,99.99
2017-04-29T05:46:05.586Z,99.99
2017-04-29T05:46:46.058Z,99.99
2017-04-29T05:47:26.536Z,99.99
2017-04-29T05:48:07.022Z,99.99
2017-04-29T05:48:47.487Z,99.99
2017-04-29T05:49:27.984Z,99.99
2017-04-29T05:50:08.474Z,99.99
2017-04-29T05:50:48.930Z,99.99
2017-04-29T05:51:29.415Z,99.99
2017-04-29T05:52:09.895Z,99.99
2017-04-29T05:52:50.380Z,99.99
2017-04-29T05:53:30.842Z,99.99
2017-04-29T05:54:11.319Z,99.99
2017-04-29T05:54:51.811Z,99.99
2017-04-29T05:55:32.339Z,99.99
2017-04-29T05:56:12.840Z,99.99
2017-04-29T05:56:53.453Z,99.99
2017-04-29T05:57:33.961Z,99.99
2017-04-29T05:58:14.456Z,99.99
2017-04-29T05:58:54.926Z,99.99
2017-04-29T05:59:35.411Z,99.99
2017-04-29T06:00:15.902Z,99.99
2017-04-29T06:00:56.406Z,99.99
2017-04-29T06:01:36.899Z,99.99
2017-04-29T06:02:17.378Z,99.99
2017-04-29T06:02:57.863Z,99.99
2017-04-29T06:03:38.347Z,99.99
2017-04-29T06:04:18.883Z,99.99
2017-04-29T06:04:59.380Z,99.99
2017-04-29T06:05:39.910Z,99.99
2017-04-29T06:06:20.359Z,99.99
2017-04-29T06:08:33.544Z,99.99
2017-04-29T06:09:14.028Z,99.99
2017-04-29T06:09:54.538Z,99.99
2017-04-29T06:10:35.028Z,99.99
2017-04-29T06:11:15.533Z,99.99
2017-04-29T06:11:56.004Z,99.99
2017-04-29T06:12:36.499Z,99.99
2017-04-29T06:13:17.043Z,99.99
2017-04-29T06:13:57.509Z,99.99
2017-04-29T06:14:38.018Z,99.99
2017-04-29T06:15:18.484Z,99.99
2017-04-29T06:15:59.003Z,99.99
2017-04-29T06:16:39.481Z,99.99
2017-04-29T06:17:19.953Z,99.99
2017-04-29T06:18:00.479Z,99.99
2017-04-29T06:18:40.966Z,99.99
2017-04-29T06:19:21.464Z,99.99
2017-04-29T06:20:01.916Z,99.99
2017-04-29T06:20:42.409Z,99.99
2017-04-29T06:21:22.882Z,99.99
2017-04-29T06:22:03.372Z,99.99
2017-04-29T06:22:43.883Z,99.99
2017-04-29T06:23:24.370Z,99.99
2017-04-29T06:24:04.882Z,99.99
2017-04-29T06:24:45.387Z,99.99
2017-04-29T06:25:25.890Z,99.99
2017-04-29T06:26:06.383Z,99.21
2017-04-29T06:26:46.884Z,99.55
2017-04-29T06:27:27.368Z,99.74
2017-04-29T06:28:07.871Z,99.74
2017-04-29T06:28:48.399Z,99.64
2017-04-29T06:29:28.886Z,99.26
2017-04-29T06:30:09.369Z,99.26
2017-04-29T06:30:49.885Z,99.07
2017-04-29T06:31:30.362Z,99.07
2017-04-29T06:32:10.852Z,99.07
2017-04-29T06:32:51.343Z,98.97
2017-04-29T06:33:31.806Z,98.31
2017-04-29T06:34:12.330Z,97.83
2017-04-29T06:34:52.817Z,98.41
2017-04-29T06:35:33.291Z,98.12
2017-04-29T06:36:13.793Z,98.12
2017-04-29T06:36:54.291Z,98.79
2017-04-29T06:37:34.767Z,99.74
2017-04-29T06:38:15.260Z,99.99
2017-04-29T06:38:55.760Z,99.99
2017-04-29T06:39:36.263Z,99.99
2017-04-29T06:40:16.777Z,99.99
2017-04-29T06:40:57.264Z,99.99
2017-04-29T06:41:37.806Z,99.99
2017-04-29T06:42:18.264Z,99.99
2017-04-29T06:42:58.761Z,99.99
2017-04-29T06:43:39.240Z,99.99
2017-04-29T06:44:19.748Z,99.99
2017-04-29T06:45:00.247Z,99.99
2017-04-29T06:45:40.775Z,99.99
2017-04-29T06:46:21.258Z,99.99
2017-04-29T06:47:01.760Z,99.99
2017-04-29T06:47:42.274Z,99.99
2017-04-29T06:48:22.803Z,99.99
2017-04-29T06:49:03.263Z,99.99
2017-04-29T06:49:43.753Z,99.99
2017-04-29T06:50:24.237Z,99.99
2017-04-29T06:51:04.731Z,99.99
2017-04-29T06:51:45.243Z,99.99
2017-04-29T06:52:25.715Z,99.99
2017-04-29T06:53:06.206Z,99.99
2017-04-29T06:53:46.680Z,99.99
2017-04-29T06:54:27.189Z,99.99
2017-04-29T06:55:07.674Z,99.99
2017-04-29T06:55:48.182Z,99.99
2017-04-29T06:56:28.661Z,99.99
2017-04-29T06:57:09.158Z,99.99
2017-04-29T06:57:49.667Z,99.99
2017-04-29T06:58:30.170Z,99.99
2017-04-29T06:59:10.642Z,99.99
2017-04-29T06:59:51.132Z,99.99
2017-04-29T07:00:31.616Z,99.99
2017-04-29T07:01:12.107Z,99.99
2017-04-29T07:01:52.591Z,99.99
2017-04-29T07:02:33.095Z,99.99
2017-04-29T07:03:13.564Z,99.99
2017-04-29T07:03:54.010Z,99.99
2017-04-29T07:04:34.474Z,99.99
2017-04-29T07:05:14.988Z,99.99
2017-04-29T07:05:55.497Z,99.99
2017-04-29T07:06:35.974Z,99.99
2017-04-29T07:07:16.470Z,99.99
2017-04-29T07:07:57.010Z,99.99
2017-04-29T07:08:37.470Z,99.99
2017-04-29T07:09:17.974Z,99.99
2017-04-29T07:09:58.498Z,99.99
2017-04-29T07:10:38.973Z,99.99
2017-04-29T07:11:19.482Z,99.99
2017-04-29T07:11:59.985Z,99.99
2017-04-29T07:12:40.468Z,99.99
2017-04-29T07:13:20.932Z,99.99
2017-04-29T07:14:01.472Z,99.99
2017-04-29T07:14:41.902Z,99.99
2017-04-29T07:15:22.389Z,99.99
2017-04-29T07:16:02.890Z,99.99
2017-04-29T07:16:43.391Z,99.99
2017-04-29T07:17:23.873Z,99.99
2017-04-29T07:18:04.390Z,99.99
2017-04-29T07:18:44.866Z,99.99
2017-04-29T07:19:25.348Z,99.99
2017-04-29T07:20:05.849Z,99.99
2017-04-29T07:20:46.352Z,99.99
2017-04-29T07:21:26.854Z,99.99
2017-04-29T07:22:07.378Z,99.99
2017-04-29T07:22:47.895Z,99.99
2017-04-29T07:23:28.386Z,99.99
2017-04-29T07:24:08.897Z,99.99
2017-04-29T07:24:49.377Z,99.99
2017-04-29T07:25:29.850Z,99.99
2017-04-29T07:26:10.348Z,99.99
2017-04-29T07:26:50.869Z,99.99
2017-04-29T07:27:31.347Z,99.99
2017-04-29T07:28:11.844Z,99.99
2017-04-29T07:28:52.337Z,99.99
2017-04-29T07:29:32.845Z,99.99
2017-04-29T07:30:13.337Z,99.99
2017-04-29T07:30:53.860Z,99.99
2017-04-29T07:31:34.346Z,99.99
2017-04-29T07:32:14.876Z,99.99
2017-04-29T07:32:55.335Z,99.99
2017-04-29T07:33:35.817Z,99.99
2017-04-29T07:34:16.316Z,99.99
2017-04-29T07:34:56.849Z,99.99
2017-04-29T07:35:37.347Z,99.99
2017-04-29T07:36:17.879Z,99.99
2017-04-29T07:36:58.372Z,99.99
2017-04-29T07:37:38.840Z,99.99
2017-04-29T07:38:19.362Z,99.99
2017-04-29T07:38:59.884Z,99.99
2017-04-29T07:39:40.335Z,99.99
2017-04-29T07:40:20.824Z,99.99
2017-04-29T07:41:01.285Z,99.99
2017-04-29T07:41:41.843Z,99.99
2017-04-29T07:42:22.339Z,99.99
2017-04-29T07:43:02.828Z,99.99
2017-04-29T07:43:43.316Z,99.99
2017-04-29T07:44:23.804Z,99.99
2017-04-29T07:45:04.286Z,99.99
2017-04-29T07:45:44.753Z,99.99
2017-04-29T07:46:25.260Z,99.99
2017-04-29T07:47:05.762Z,99.99
2017-04-29T07:47:46.272Z,99.99
2017-04-29T07:48:26.816Z,99.99
2017-04-29T07:49:07.301Z,99.99
2017-04-29T07:49:47.794Z,99.99
2017-04-29T07:52:06.099Z,99.99
2017-04-29T07:52:46.583Z,99.99
2017-04-29T07:53:27.078Z,99.99
2017-04-29T07:54:07.550Z,99.99
2017-04-29T07:54:48.074Z,99.99
2017-04-29T07:55:28.548Z,99.99
2017-04-29T07:56:09.046Z,99.99
2017-04-29T07:56:49.578Z,99.99
2017-04-29T07:57:30.007Z,99.99
2017-04-29T07:58:10.494Z,99.99
2017-04-29T07:58:51.021Z,99.99
2017-04-29T07:59:31.563Z,99.99
2017-04-29T08:00:12.025Z,99.99
2017-04-29T08:00:52.581Z,99.99
2017-04-29T08:01:33.058Z,99.99
2017-04-29T08:02:13.551Z,99.99
2017-04-29T08:02:54.063Z,99.99
2017-04-29T08:03:34.562Z,99.99
2017-04-29T08:04:15.043Z,99.99
2017-04-29T08:04:55.548Z,99.99
2017-04-29T08:05:36.032Z,99.99
2017-04-29T08:06:16.507Z,99.99
2017-04-29T08:06:56.994Z,99.99
2017-04-29T08:07:37.563Z,99.99
2017-04-29T08:08:18.056Z,99.99
2017-04-29T08:08:58.616Z,99.99
2017-04-29T08:09:39.101Z,99.99
2017-04-29T08:10:19.617Z,99.99
2017-04-29T08:11:00.126Z,99.99
2017-04-29T08:11:40.630Z,99.99
2017-04-29T08:12:21.095Z,99.99
2017-04-29T08:13:01.653Z,99.99
2017-04-29T08:13:42.129Z,99.99
2017-04-29T08:14:22.636Z,99.99
2017-04-29T08:15:03.118Z,99.99
2017-04-29T08:15:43.642Z,99.99
2017-04-29T08:16:24.135Z,99.99
2017-04-29T08:17:04.604Z,99.99
2017-04-29T08:17:45.090Z,99.99
2017-04-29T08:21:07.550Z,99.99
2017-04-29T08:21:47.990Z,99.99
2017-04-29T08:22:28.497Z,99.99
2017-04-29T08:23:09.019Z,99.99
2017-04-29T08:23:49.566Z,99.99
2017-04-29T08:24:30.030Z,99.99
2017-04-29T08:25:11.253Z,99.99
2017-04-29T08:25:52.622Z,99.99
2017-04-29T08:26:33.095Z,99.99
2017-04-29T08:27:13.612Z,99.99
2017-04-29T08:27:54.141Z,99.99
2017-04-29T08:28:35.502Z,99.99
2017-04-29T08:29:15.997Z,99.99
2017-04-29T08:29:57.338Z,99.99
2017-04-29T08:30:37.841Z,99.99
2017-04-29T08:31:18.321Z,99.99
2017-04-29T08:31:58.827Z,99.99
2017-04-29T08:32:39.401Z,99.99
2017-04-29T08:33:20.389Z,99.99
2017-04-29T08:34:00.887Z,99.99
2017-04-29T08:34:41.421Z,99.99
2017-04-29T08:35:21.932Z,99.99
2017-04-29T08:36:02.442Z,99.99
2017-04-29T08:36:43.197Z,99.99
2017-04-29T08:37:23.668Z,99.99
2017-04-29T08:38:04.116Z,99.99
2017-04-29T08:38:44.607Z,99.99
2017-04-29T08:39:25.100Z,99.99
2017-04-29T08:40:05.578Z,99.99
2017-04-29T08:40:46.072Z,99.99
2017-04-29T08:41:26.543Z,99.99
2017-04-29T08:42:07.016Z,99.99
2017-04-29T08:42:48.305Z,99.99
2017-04-29T08:43:28.813Z,99.99
2017-04-29T08:44:09.330Z,99.99
2017-04-29T08:44:50.604Z,99.99
2017-04-29T08:45:31.943Z,99.99
2017-04-29T08:46:14.711Z,99.99
2017-04-29T08:46:56.910Z,99.99
2017-04-29T08:47:37.397Z,99.99
2017-04-29T08:48:17.907Z,99.99
2017-04-29T08:48:58.371Z,99.99
2017-04-29T08:49:38.848Z,99.99
2017-04-29T08:50:20.342Z,99.99
2017-04-29T08:51:00.888Z,99.99
2017-04-29T08:51:43.923Z,99.99
2017-04-29T08:52:25.330Z,99.99
2017-04-29T08:53:05.861Z,99.99
2017-04-29T08:53:47.720Z,99.99
2017-04-29T08:54:29.922Z,99.99